createdAt,value
2023-03-08T00:01:25.404Z,19.80
2023-03-08T00:03:55.797Z,21.70
2023-03-08T00:06:25.830Z,21.70
2023-03-08T00:09:01.967Z,20.10
2023-03-08T00:11:30.711Z,21.70
2023-03-08T00:13:59.497Z,19.00
2023-03-08T00:16:28.135Z,21.90
2023-03-08T00:18:56.584Z,20.50
2023-03-08T00:21:24.817Z,20.60
2023-03-08T00:23:54.594Z,19.80
2023-03-08T00:26:23.366Z,20.30
2023-03-08T00:28:52.835Z,22.00
2023-03-08T00:31:21.626Z,20.10
2023-03-08T00:33:54.014Z,18.70
2023-03-08T00:36:22.645Z,19.30
2023-03-08T00:38:51.738Z,20.10
2023-03-08T00:41:20.768Z,20.10
2023-03-08T00:43:50.220Z,20.60
2023-03-08T00:46:18.797Z,21.30
2023-03-08T00:48:47.268Z,21.90
2023-03-08T00:51:18.886Z,22.70
2023-03-08T00:53:49.324Z,22.10
2023-03-08T00:56:18.211Z,22.00
2023-03-08T00:58:47.132Z,22.10
2023-03-08T01:01:18.715Z,22.80
2023-03-08T01:03:49.812Z,22.40
2023-03-08T01:06:18.291Z,23.60
2023-03-08T01:08:46.889Z,21.60
2023-03-08T01:11:19.700Z,24.00
2023-03-08T01:13:49.290Z,23.20
2023-03-08T01:16:24.009Z,27.30
2023-03-08T01:18:53.829Z,27.30
2023-03-08T01:21:22.835Z,30.30
2023-03-08T01:23:51.794Z,34.90
2023-03-08T01:26:23.266Z,32.00
2023-03-08T01:28:52.258Z,31.70
2023-03-08T01:31:26.395Z,31.70
2023-03-08T01:33:56.802Z,32.30
2023-03-08T01:36:26.841Z,33.20
2023-03-08T01:38:55.830Z,30.90
2023-03-08T01:41:30.403Z,27.60
2023-03-08T01:43:59.361Z,29.60
2023-03-08T01:46:36.036Z,27.60
2023-03-08T01:49:36.143Z,25.90
2023-03-08T01:55:10.029Z,26.10
2023-03-08T01:57:42.438Z,26.40
2023-03-08T02:00:15.231Z,22.90
2023-03-08T02:02:56.992Z,23.40
2023-03-08T02:05:27.188Z,24.50
2023-03-08T02:07:59.820Z,21.30
2023-03-08T02:10:31.821Z,19.50
2023-03-08T02:13:00.671Z,20.80
2023-03-08T02:15:29.172Z,17.50
2023-03-08T02:17:58.480Z,17.60
2023-03-08T02:20:38.836Z,21.10
2023-03-08T02:23:22.882Z,18.80
2023-03-08T02:25:55.781Z,8.80
2023-03-08T02:28:26.102Z,12.20
2023-03-08T02:30:55.840Z,16.10
2023-03-08T02:33:24.992Z,13.30
2023-03-08T02:35:53.758Z,13.50
2023-03-08T02:38:22.701Z,13.00
2023-03-08T02:40:53.266Z,13.30
2023-03-08T02:43:22.134Z,12.80
2023-03-08T02:45:51.535Z,11.90
2023-03-08T02:48:20.435Z,11.00
2023-03-08T02:50:48.821Z,8.70
2023-03-08T02:53:17.200Z,7.40
2023-03-08T02:55:47.736Z,7.20
2023-03-08T02:58:16.129Z,7.30
2023-03-08T03:00:45.427Z,6.40
2023-03-08T03:03:14.218Z,7.10
2023-03-08T03:05:43.839Z,7.20
2023-03-08T03:08:14.598Z,6.80
2023-03-08T03:10:43.164Z,7.40
2023-03-08T03:13:11.540Z,6.60
2023-03-08T03:15:40.532Z,7.40
2023-03-08T03:18:09.023Z,6.90
2023-03-08T03:20:37.722Z,6.90
2023-03-08T03:23:06.706Z,7.10
2023-03-08T03:25:46.963Z,7.10
2023-03-08T03:28:16.892Z,7.00
2023-03-08T03:30:45.696Z,6.00
2023-03-08T03:33:14.979Z,7.20
2023-03-08T03:35:44.199Z,7.90
2023-03-08T03:38:12.468Z,5.70
2023-03-08T03:40:41.875Z,6.40
2023-03-08T03:43:11.794Z,5.60
2023-03-08T03:45:40.496Z,6.70
2023-03-08T03:48:09.382Z,7.80
2023-03-08T03:50:38.707Z,5.80
2023-03-08T03:53:11.370Z,6.90
2023-03-08T03:55:39.859Z,7.10
2023-03-08T03:58:09.188Z,6.90
2023-03-08T04:00:37.857Z,7.20
2023-03-08T04:03:11.985Z,6.30
2023-03-08T04:05:40.467Z,6.60
2023-03-08T04:08:09.272Z,5.60
2023-03-08T04:10:39.588Z,7.20
2023-03-08T04:13:12.368Z,6.00
2023-03-08T04:15:41.316Z,5.90
2023-03-08T04:18:11.192Z,6.10
2023-03-08T04:20:42.132Z,6.20
2023-03-08T04:23:10.722Z,6.30
2023-03-08T04:25:43.258Z,6.40
2023-03-08T04:28:13.627Z,7.60
2023-03-08T04:30:42.940Z,7.80
2023-03-08T04:33:12.952Z,7.40
2023-03-08T04:35:46.489Z,6.40
2023-03-08T04:38:16.996Z,8.40
2023-03-08T04:41:02.256Z,9.70
2023-03-08T04:43:36.289Z,7.30
2023-03-08T04:46:05.561Z,7.20
2023-03-08T04:48:34.773Z,6.70
2023-03-08T04:51:07.354Z,7.60
2023-03-08T04:53:36.725Z,6.60
2023-03-08T04:56:06.685Z,7.10
2023-03-08T04:58:36.713Z,7.00
2023-03-08T05:01:17.062Z,8.60
2023-03-08T05:03:46.267Z,7.60
2023-03-08T05:06:14.562Z,13.70
2023-03-08T05:08:44.161Z,8.40
2023-03-08T05:11:28.110Z,7.80
2023-03-08T05:13:59.042Z,7.60
2023-03-08T05:16:28.390Z,7.90
2023-03-08T05:18:57.346Z,7.50
2023-03-08T05:21:28.695Z,8.80
2023-03-08T05:24:00.880Z,8.80
2023-03-08T05:26:31.826Z,8.60
2023-03-08T05:29:06.436Z,8.20
2023-03-08T05:31:36.973Z,7.80
2023-03-08T05:34:06.583Z,8.70
2023-03-08T05:36:38.044Z,9.50
2023-03-08T05:39:08.850Z,9.00
2023-03-08T05:41:48.922Z,12.60
2023-03-08T05:46:51.618Z,7.70
2023-03-08T05:49:20.632Z,7.80
2023-03-08T05:51:49.047Z,7.30
2023-03-08T05:54:18.319Z,6.40
2023-03-08T05:56:48.592Z,7.80
2023-03-08T05:59:26.900Z,7.20
2023-03-08T06:02:00.201Z,8.50
2023-03-08T06:04:54.320Z,9.60
2023-03-08T06:07:24.584Z,8.10
2023-03-08T06:09:57.741Z,8.80
2023-03-08T06:12:26.746Z,8.00
2023-03-08T06:14:56.966Z,8.00
2023-03-08T06:17:27.800Z,8.20
2023-03-08T06:19:57.009Z,7.50
2023-03-08T06:22:25.501Z,8.30
2023-03-08T06:24:55.114Z,8.10
2023-03-08T06:27:30.654Z,7.30
2023-03-08T06:30:01.084Z,9.30
2023-03-08T06:32:31.589Z,7.80
2023-03-08T06:35:00.523Z,8.00
2023-03-08T06:37:33.410Z,8.20
2023-03-08T06:40:03.872Z,13.70
2023-03-08T06:42:41.244Z,7.90
2023-03-08T06:45:13.090Z,7.60
2023-03-08T06:47:41.795Z,7.60
2023-03-08T06:50:11.117Z,9.20
2023-03-08T06:52:40.812Z,7.60
2023-03-08T06:55:10.675Z,8.00
2023-03-08T06:57:39.313Z,8.90
2023-03-08T07:00:12.463Z,11.10
2023-03-08T07:02:40.690Z,6.50
2023-03-08T07:05:10.229Z,6.20
2023-03-08T07:07:39.931Z,7.20
2023-03-08T07:10:11.266Z,7.70
2023-03-08T07:12:43.647Z,7.50
2023-03-08T07:15:14.983Z,7.00
2023-03-08T07:17:43.782Z,8.40
2023-03-08T07:20:13.949Z,7.50
2023-03-08T07:22:44.029Z,8.30
2023-03-08T07:25:18.041Z,7.10
2023-03-08T07:30:16.354Z,7.70
2023-03-08T07:32:45.062Z,7.60
2023-03-08T07:35:15.345Z,8.40
2023-03-08T07:37:47.950Z,7.70
2023-03-08T07:40:17.811Z,8.80
2023-03-08T07:42:46.476Z,7.30
2023-03-08T07:45:50.551Z,7.60
2023-03-08T07:48:19.345Z,7.90
2023-03-08T07:50:48.040Z,7.80
2023-03-08T07:53:16.332Z,8.40
2023-03-08T07:55:44.810Z,7.30
2023-03-08T07:58:13.603Z,7.70
2023-03-08T08:00:41.898Z,7.50
2023-03-08T08:03:10.413Z,7.70
2023-03-08T08:05:39.034Z,9.30
2023-03-08T08:08:07.452Z,8.60
2023-03-08T08:10:36.240Z,8.20
2023-03-08T08:13:04.491Z,8.30
2023-03-08T08:15:33.289Z,9.60
2023-03-08T08:18:01.698Z,9.50
2023-03-08T08:20:30.187Z,10.30
2023-03-08T08:22:58.384Z,10.40
2023-03-08T08:25:26.854Z,8.90
2023-03-08T08:27:55.349Z,9.20
2023-03-08T08:30:24.129Z,9.40
2023-03-08T08:32:52.613Z,9.50
2023-03-08T08:35:20.800Z,9.60
2023-03-08T08:37:49.382Z,9.20
2023-03-08T08:40:18.284Z,8.80
2023-03-08T08:42:46.458Z,9.20
2023-03-08T08:45:14.951Z,9.30
2023-03-08T08:47:43.336Z,9.80
2023-03-08T08:50:14.067Z,10.30
2023-03-08T08:52:42.632Z,9.60
2023-03-08T08:55:11.049Z,8.90
2023-03-08T08:57:39.223Z,9.50
2023-03-08T09:00:10.010Z,9.30
2023-03-08T09:02:38.357Z,8.60
2023-03-08T09:05:07.364Z,8.80
2023-03-08T09:07:38.103Z,8.90
2023-03-08T09:10:08.175Z,9.60
2023-03-08T09:12:36.995Z,8.50
2023-03-08T09:15:06.492Z,9.40
2023-03-08T09:17:34.896Z,9.10
2023-03-08T09:20:06.243Z,9.40
2023-03-08T09:22:34.431Z,9.70
2023-03-08T09:25:02.709Z,11.40
2023-03-08T09:27:31.459Z,9.00
2023-03-08T09:30:00.060Z,9.60
2023-03-08T09:32:28.412Z,10.00
2023-03-08T09:34:58.196Z,10.20
2023-03-08T09:37:26.578Z,9.50
2023-03-08T09:39:55.474Z,8.90
2023-03-08T09:42:33.686Z,9.30
2023-03-08T09:45:07.236Z,9.40
2023-03-08T09:50:34.066Z,7.20
2023-03-08T09:53:31.822Z,8.10
2023-03-08T09:56:15.124Z,7.40
2023-03-08T09:58:50.271Z,7.10
2023-03-08T10:01:41.354Z,8.00
2023-03-08T10:05:09.927Z,7.70
2023-03-08T10:07:49.859Z,7.80
2023-03-08T10:10:42.294Z,7.40
2023-03-08T10:13:44.042Z,8.40
2023-03-08T10:16:24.058Z,13.60
2023-03-08T10:19:43.328Z,7.10
2023-03-08T10:22:25.839Z,7.10
2023-03-08T10:25:01.900Z,7.30
2023-03-08T10:27:34.892Z,7.00
2023-03-08T10:30:28.582Z,7.40
2023-03-08T10:33:00.172Z,6.90
2023-03-08T10:35:54.449Z,5.60
2023-03-08T10:38:26.363Z,4.40
2023-03-08T10:41:07.351Z,3.40
2023-03-08T10:43:47.900Z,3.20
2023-03-08T10:46:28.615Z,3.80
2023-03-08T10:49:10.552Z,4.00
2023-03-08T10:51:39.334Z,3.70
2023-03-08T10:54:16.063Z,3.40
2023-03-08T10:56:55.185Z,3.60
2023-03-08T10:59:32.644Z,3.10
2023-03-08T11:02:18.660Z,3.80
2023-03-08T11:05:21.289Z,3.50
2023-03-08T11:07:59.714Z,3.30
2023-03-08T11:11:25.685Z,3.40
2023-03-08T11:13:57.523Z,3.40
2023-03-08T11:16:50.210Z,3.30
2023-03-08T11:19:32.627Z,3.20
2023-03-08T11:22:16.028Z,2.80
2023-03-08T11:24:59.762Z,3.30
2023-03-08T11:27:28.247Z,2.50
2023-03-08T11:30:02.782Z,2.80
2023-03-08T11:33:00.049Z,4.50
2023-03-08T11:35:40.916Z,2.80
2023-03-08T11:38:23.388Z,3.50
2023-03-08T11:40:57.729Z,3.10
2023-03-08T11:44:04.266Z,3.50
2023-03-08T11:46:44.935Z,2.40
2023-03-08T11:49:51.917Z,2.90
2023-03-08T11:52:35.422Z,2.70
2023-03-08T11:57:57.092Z,2.10
2023-03-08T12:00:47.048Z,2.60
2023-03-08T12:03:17.797Z,2.10
2023-03-08T12:06:26.566Z,2.20
2023-03-08T12:09:05.806Z,2.10
2023-03-08T12:12:10.726Z,2.70
2023-03-08T12:14:52.006Z,2.60
2023-03-08T12:17:25.964Z,2.60
2023-03-08T12:19:54.510Z,2.40
2023-03-08T12:22:46.507Z,2.50
2023-03-08T12:25:29.748Z,2.70
2023-03-08T12:28:02.015Z,2.20
2023-03-08T12:30:36.866Z,2.80
2023-03-08T12:33:09.342Z,2.50
2023-03-08T12:35:51.733Z,2.30
2023-03-08T12:38:21.105Z,2.60
2023-03-08T12:40:52.092Z,2.10
2023-03-08T12:43:20.502Z,2.00
2023-03-08T12:46:01.369Z,1.90
2023-03-08T12:48:37.966Z,2.30
2023-03-08T12:51:12.546Z,2.30
2023-03-08T12:53:51.173Z,2.30
2023-03-08T12:56:26.013Z,2.20
2023-03-08T12:59:01.233Z,1.80
2023-03-08T13:01:44.354Z,2.30
2023-03-08T13:04:40.867Z,2.00
2023-03-08T13:07:22.395Z,2.20
2023-03-08T13:10:22.029Z,2.00
2023-03-08T13:13:20.562Z,1.80
2023-03-08T13:16:33.505Z,4.20
2023-03-08T13:19:17.463Z,2.30
2023-03-08T13:22:17.915Z,1.80
2023-03-08T13:24:59.107Z,2.30
2023-03-08T13:27:41.378Z,2.40
2023-03-08T13:30:34.389Z,2.60
2023-03-08T13:33:14.801Z,2.40
2023-03-08T13:35:43.483Z,2.00
2023-03-08T13:38:22.709Z,2.80
2023-03-08T13:40:56.100Z,2.10
2023-03-08T13:43:33.072Z,2.00
2023-03-08T13:46:11.515Z,2.40
2023-03-08T13:48:44.881Z,2.00
2023-03-08T13:51:19.179Z,1.80
2023-03-08T13:53:47.773Z,2.00
2023-03-08T13:56:28.510Z,1.90
2023-03-08T13:59:00.148Z,1.90
2023-03-08T14:01:28.645Z,1.70
2023-03-08T14:03:58.560Z,1.60
2023-03-08T14:06:35.810Z,1.90
2023-03-08T14:09:05.858Z,1.90
2023-03-08T14:11:38.322Z,2.10
2023-03-08T14:14:15.287Z,1.80
2023-03-08T14:16:44.004Z,1.90
2023-03-08T14:19:19.686Z,2.20
2023-03-08T14:22:03.965Z,2.00
2023-03-08T14:24:37.262Z,2.20
2023-03-08T14:27:27.048Z,2.50
2023-03-08T14:30:14.898Z,2.40
2023-03-08T14:33:02.233Z,2.00
2023-03-08T14:35:43.912Z,2.50
2023-03-08T14:38:24.466Z,2.40
2023-03-08T14:40:56.738Z,2.80
2023-03-08T14:43:27.868Z,2.70
2023-03-08T14:46:00.302Z,2.40
2023-03-08T14:48:34.589Z,2.70
2023-03-08T14:51:05.096Z,2.80
2023-03-08T14:53:36.229Z,3.60
2023-03-08T14:56:15.976Z,2.20
2023-03-08T14:58:49.372Z,3.00
2023-03-08T15:03:57.310Z,3.20
2023-03-08T15:06:31.721Z,3.10
2023-03-08T15:09:02.162Z,3.10
2023-03-08T15:11:32.171Z,3.20
2023-03-08T15:14:01.072Z,2.90
2023-03-08T15:16:29.417Z,3.20
2023-03-08T15:18:57.943Z,3.60
2023-03-08T15:21:29.476Z,3.20
2023-03-08T15:23:58.298Z,3.60
2023-03-08T15:26:31.749Z,3.90
2023-03-08T15:31:32.706Z,3.10
2023-03-08T15:34:01.852Z,3.40
2023-03-08T15:36:36.774Z,2.70
2023-03-08T15:39:05.994Z,2.50
2023-03-08T15:41:34.471Z,4.00
2023-03-08T15:44:02.863Z,3.80
2023-03-08T15:46:31.780Z,4.30
2023-03-08T15:49:00.135Z,5.00
2023-03-08T15:51:36.733Z,5.00
2023-03-08T15:54:06.681Z,4.80
2023-03-08T15:56:35.537Z,5.40
2023-03-08T15:59:03.918Z,4.80
2023-03-08T16:01:33.472Z,3.80
2023-03-08T16:04:01.913Z,3.40
2023-03-08T16:06:30.393Z,4.90
2023-03-08T16:08:58.872Z,5.20
2023-03-08T16:11:27.791Z,6.90
2023-03-08T16:13:56.195Z,10.00
2023-03-08T16:16:32.346Z,12.80
2023-03-08T16:19:10.783Z,14.70
2023-03-08T16:21:38.922Z,7.00
2023-03-08T16:24:07.409Z,12.40
2023-03-08T16:26:35.878Z,10.00
2023-03-08T16:29:05.199Z,7.60
2023-03-08T16:31:34.168Z,7.70
2023-03-08T16:34:03.909Z,4.70
2023-03-08T16:36:33.521Z,5.40
2023-03-08T16:39:01.812Z,5.80
2023-03-08T16:41:30.294Z,4.70
2023-03-08T16:43:59.239Z,5.60
2023-03-08T16:46:28.113Z,6.90
2023-03-08T16:48:57.086Z,6.30
2023-03-08T16:51:28.121Z,5.80
2023-03-08T16:53:56.461Z,5.40
2023-03-08T16:56:28.686Z,5.60
2023-03-08T16:58:59.733Z,5.60
2023-03-08T17:01:29.477Z,5.90
2023-03-08T17:03:58.557Z,5.10
2023-03-08T17:06:29.275Z,6.00
2023-03-08T17:08:58.629Z,5.70
2023-03-08T17:11:29.261Z,7.90
2023-03-08T17:14:03.460Z,6.80
2023-03-08T17:16:33.257Z,5.70
2023-03-08T17:19:03.297Z,5.20
2023-03-08T17:21:32.151Z,21.30
2023-03-08T17:24:00.402Z,8.30
2023-03-08T17:26:28.736Z,8.70
2023-03-08T17:28:57.327Z,9.10
2023-03-08T17:31:26.442Z,8.30
2023-03-08T17:33:54.909Z,6.60
2023-03-08T17:36:23.647Z,9.00
2023-03-08T17:38:55.973Z,10.00
2023-03-08T17:41:24.775Z,7.20
2023-03-08T17:43:53.366Z,7.80
2023-03-08T17:46:24.147Z,6.90
2023-03-08T17:48:53.505Z,6.90
2023-03-08T17:51:28.543Z,7.40
2023-03-08T17:53:58.373Z,7.90
2023-03-08T17:56:32.279Z,8.30
2023-03-08T17:59:01.985Z,8.60
2023-03-08T18:01:31.740Z,8.00
2023-03-08T18:04:03.889Z,6.80
2023-03-08T18:06:34.237Z,7.90
2023-03-08T18:09:08.089Z,7.10
2023-03-08T18:11:42.308Z,6.70
2023-03-08T18:14:14.131Z,7.20
2023-03-08T18:16:45.065Z,7.10
2023-03-08T18:19:13.821Z,7.20
2023-03-08T18:21:42.108Z,6.70
2023-03-08T18:24:13.252Z,7.20
2023-03-08T18:26:41.846Z,8.50
2023-03-08T18:29:18.554Z,12.80
2023-03-08T18:31:56.214Z,8.60
2023-03-08T18:34:25.005Z,7.60
2023-03-08T18:36:55.521Z,7.50
2023-03-08T18:39:24.121Z,8.10
2023-03-08T18:42:01.878Z,9.10
2023-03-08T18:44:33.392Z,9.70
2023-03-08T18:47:02.003Z,8.80
2023-03-08T18:49:30.656Z,8.50
2023-03-08T18:51:59.206Z,11.20
2023-03-08T18:54:27.742Z,9.10
2023-03-08T18:56:58.139Z,13.20
2023-03-08T18:59:29.136Z,10.40
2023-03-08T19:01:57.412Z,10.80
2023-03-08T19:04:25.987Z,11.20
2023-03-08T19:06:54.297Z,9.90
2023-03-08T19:09:22.540Z,11.40
2023-03-08T19:11:50.827Z,10.10
2023-03-08T19:14:19.115Z,10.60
2023-03-08T19:16:47.769Z,11.30
2023-03-08T19:19:16.489Z,11.90
2023-03-08T19:21:48.633Z,12.80
2023-03-08T19:24:19.305Z,11.50
2023-03-08T19:26:51.367Z,10.50
2023-03-08T19:29:24.006Z,10.00
2023-03-08T19:31:58.614Z,11.30
2023-03-08T19:34:33.143Z,11.60
2023-03-08T19:37:02.484Z,10.90
2023-03-08T19:39:34.570Z,10.80
2023-03-08T19:42:06.948Z,11.20
2023-03-08T19:44:35.547Z,11.50
2023-03-08T19:47:05.193Z,12.40
2023-03-08T19:49:35.763Z,12.50
2023-03-08T19:52:06.328Z,9.60
2023-03-08T19:54:34.965Z,9.90
2023-03-08T19:57:03.906Z,9.90
2023-03-08T19:59:32.611Z,11.20
2023-03-08T20:02:00.898Z,11.20
2023-03-08T20:04:29.925Z,9.50
2023-03-08T20:07:01.848Z,9.00
2023-03-08T20:09:30.667Z,11.20
2023-03-08T20:11:59.309Z,11.80
2023-03-08T20:14:28.245Z,12.10
2023-03-08T20:16:57.461Z,11.80
2023-03-08T20:19:26.120Z,11.20
2023-03-08T20:21:54.522Z,11.20
2023-03-08T20:24:24.408Z,11.20
2023-03-08T20:26:53.023Z,12.20
2023-03-08T20:29:22.425Z,19.40
2023-03-08T20:31:51.285Z,12.00
2023-03-08T20:34:19.602Z,11.00
2023-03-08T20:36:47.980Z,11.10
2023-03-08T20:39:16.272Z,12.00
2023-03-08T20:41:44.953Z,12.90
2023-03-08T20:44:13.651Z,12.30
2023-03-08T20:46:42.041Z,12.10
2023-03-08T20:49:12.596Z,14.10
2023-03-08T20:51:41.273Z,13.50
2023-03-08T20:54:10.158Z,13.10
2023-03-08T20:56:38.846Z,22.70
2023-03-08T20:59:07.334Z,21.20
2023-03-08T21:01:35.739Z,16.20
2023-03-08T21:04:05.356Z,18.00
2023-03-08T21:06:33.632Z,19.30
2023-03-08T21:09:02.409Z,21.50
2023-03-08T21:11:30.996Z,23.00
2023-03-08T21:13:59.285Z,24.00
2023-03-08T21:16:29.162Z,18.20
2023-03-08T21:18:59.554Z,18.80
2023-03-08T21:21:43.261Z,20.60
2023-03-08T21:24:14.730Z,16.10
2023-03-08T21:26:43.812Z,15.60
2023-03-08T21:29:17.824Z,18.50
2023-03-08T21:31:49.215Z,16.80
2023-03-08T21:34:19.352Z,19.80
2023-03-08T21:36:47.784Z,18.40
2023-03-08T21:39:17.544Z,17.00
2023-03-08T21:41:48.094Z,19.70
2023-03-08T21:44:19.179Z,19.40
2023-03-08T21:46:48.974Z,18.40
2023-03-08T21:49:21.801Z,19.70
2023-03-08T21:51:51.298Z,18.50
2023-03-08T21:54:21.169Z,16.20
2023-03-08T21:56:50.104Z,15.60
2023-03-08T21:59:19.304Z,17.50
2023-03-08T22:01:48.934Z,19.70
2023-03-08T22:04:18.010Z,17.90
2023-03-08T22:06:46.827Z,18.80
2023-03-08T22:09:15.098Z,17.00
2023-03-08T22:11:43.583Z,19.00
2023-03-08T22:14:16.162Z,19.20
2023-03-08T22:16:44.338Z,18.00
2023-03-08T22:19:12.733Z,19.00
2023-03-08T22:21:41.010Z,19.10
2023-03-08T22:24:10.333Z,19.00
2023-03-08T22:26:38.902Z,19.50
2023-03-08T22:29:07.700Z,19.30
2023-03-08T22:31:36.111Z,18.40
2023-03-08T22:34:06.165Z,18.10
2023-03-08T22:36:35.104Z,18.80
2023-03-08T22:39:03.798Z,19.40
2023-03-08T22:41:32.489Z,18.20
2023-03-08T22:44:04.189Z,18.00
2023-03-08T22:46:33.078Z,18.10
2023-03-08T22:49:04.910Z,15.60
2023-03-08T22:51:35.796Z,15.30
2023-03-08T22:54:05.795Z,14.60
2023-03-08T22:56:34.987Z,14.00
2023-03-08T22:59:03.862Z,15.70
2023-03-08T23:01:33.314Z,17.20
2023-03-08T23:04:03.653Z,17.60
2023-03-08T23:06:32.986Z,16.70
2023-03-08T23:09:08.961Z,16.80
2023-03-08T23:11:38.254Z,17.40
2023-03-08T23:14:08.099Z,15.30
2023-03-08T23:16:36.918Z,16.40
2023-03-08T23:19:05.467Z,15.10
2023-03-08T23:21:36.038Z,15.70
2023-03-08T23:24:05.368Z,15.30
2023-03-08T23:26:34.120Z,14.90
2023-03-08T23:29:04.238Z,14.50
2023-03-08T23:31:35.537Z,13.30
2023-03-08T23:34:05.829Z,14.50
2023-03-08T23:36:34.708Z,13.90
2023-03-08T23:39:04.040Z,13.70
2023-03-08T23:41:33.181Z,14.60
2023-03-08T23:44:02.343Z,14.80
2023-03-08T23:46:31.615Z,14.80
2023-03-08T23:49:01.228Z,14.70
2023-03-08T23:51:32.900Z,16.00
2023-03-08T23:54:02.865Z,14.40
2023-03-08T23:56:38.128Z,13.00
2023-03-08T23:59:18.362Z,13.80
